createdAt,value
2018-03-03T00:00:40.928Z,-0.12
2018-03-03T00:03:08.629Z,-0.13
2018-03-03T00:05:36.450Z,-0.12
2018-03-03T00:08:05.470Z,-0.08
2018-03-03T00:10:33.050Z,-0.18
2018-03-03T00:13:00.808Z,-0.17
2018-03-03T00:15:28.434Z,-0.16
2018-03-03T00:17:56.002Z,-0.13
2018-03-03T00:20:23.577Z,-0.07
2018-03-03T00:22:51.164Z,-0.02
2018-03-03T00:25:18.716Z,-0.10
2018-03-03T00:27:46.518Z,-0.19
2018-03-03T00:30:14.331Z,-0.16
2018-03-03T00:32:41.909Z,-0.09
2018-03-03T00:35:09.502Z,-0.07
2018-03-03T00:37:37.089Z,-0.08
2018-03-03T00:40:04.701Z,-0.05
2018-03-03T00:42:32.280Z,0.05
2018-03-03T00:45:00.006Z,0.11
2018-03-03T00:47:27.757Z,0.14
2018-03-03T00:49:55.489Z,0.07
2018-03-03T00:52:23.074Z,0.09
2018-03-03T00:54:50.700Z,0.13
2018-03-03T00:57:18.282Z,0.07
2018-03-03T00:59:45.862Z,0.09
2018-03-03T01:02:13.441Z,0.10
2018-03-03T01:04:41.017Z,0.14
2018-03-03T01:07:08.590Z,0.17
2018-03-03T01:09:36.317Z,0.13
2018-03-03T01:12:03.954Z,0.19
2018-03-03T01:14:31.754Z,0.13
2018-03-03T01:16:59.571Z,0.11
2018-03-03T01:19:27.134Z,0.14
2018-03-03T01:21:54.704Z,0.07
2018-03-03T01:24:22.529Z,0.07
2018-03-03T01:26:50.344Z,0.09
2018-03-03T01:29:17.958Z,0.07
2018-03-03T01:31:45.680Z,0.08
2018-03-03T01:34:13.257Z,0.15
2018-03-03T01:36:41.018Z,0.21
2018-03-03T01:39:08.590Z,0.18
2018-03-03T01:41:36.325Z,0.19
2018-03-03T01:44:04.083Z,0.18
2018-03-03T01:46:31.687Z,0.14
2018-03-03T01:48:59.260Z,0.20
2018-03-03T01:51:49.525Z,0.19
2018-03-03T01:54:17.089Z,0.11
2018-03-03T01:56:44.707Z,0.07
2018-03-03T01:59:12.270Z,0.12
2018-03-03T02:01:39.847Z,0.12
2018-03-03T02:04:07.440Z,0.08
2018-03-03T02:06:35.009Z,-0.03
2018-03-03T02:09:02.713Z,-0.08
2018-03-03T02:11:30.546Z,-0.13
2018-03-03T02:13:58.367Z,-0.15
2018-03-03T02:16:25.956Z,-0.17
2018-03-03T02:18:53.700Z,-0.20
2018-03-03T02:21:21.519Z,-0.25
2018-03-03T02:23:49.088Z,-0.41
2018-03-03T02:26:16.737Z,-0.46
2018-03-03T02:28:44.324Z,-0.55
2018-03-03T02:31:11.963Z,-0.48
2018-03-03T02:33:39.544Z,-0.53
2018-03-03T02:36:07.123Z,-0.54
2018-03-03T02:38:34.711Z,-0.54
2018-03-03T02:41:02.436Z,-0.51
2018-03-03T02:43:30.025Z,-0.49
2018-03-03T02:45:57.581Z,-0.47
2018-03-03T02:48:25.204Z,-0.40
2018-03-03T02:50:53.034Z,-0.32
2018-03-03T02:53:20.598Z,-0.25
2018-03-03T02:55:48.249Z,-0.13
2018-03-03T02:58:15.955Z,-0.09
2018-03-03T03:00:43.526Z,-0.07
2018-03-03T03:03:11.803Z,-0.03
2018-03-03T03:05:39.936Z,-0.07
2018-03-03T03:08:07.561Z,-0.09
2018-03-03T03:10:35.131Z,-0.09
2018-03-03T03:13:02.814Z,-0.10
2018-03-03T03:15:30.381Z,-0.10
2018-03-03T03:17:58.135Z,-0.09
2018-03-03T03:20:25.710Z,-0.18
2018-03-03T03:22:53.370Z,-0.18
2018-03-03T03:25:21.188Z,-0.18
2018-03-03T03:27:48.906Z,-0.14
2018-03-03T03:30:16.499Z,-0.08
2018-03-03T03:32:44.223Z,-0.04
2018-03-03T03:35:11.795Z,-0.03
2018-03-03T03:37:39.354Z,-0.06
2018-03-03T03:40:07.196Z,-0.04
2018-03-03T03:42:34.763Z,-0.07
2018-03-03T03:45:02.339Z,-0.09
2018-03-03T03:47:29.939Z,-0.10
2018-03-03T03:49:57.501Z,-0.12
2018-03-03T03:52:25.178Z,-0.18
2018-03-03T03:54:52.747Z,-0.18
2018-03-03T03:57:20.376Z,-0.15
2018-03-03T03:59:47.949Z,-0.15
2018-03-03T04:02:15.757Z,-0.24
2018-03-03T04:04:43.468Z,-0.30
2018-03-03T04:07:11.084Z,-0.26
2018-03-03T04:09:38.674Z,-0.30
2018-03-03T04:12:06.405Z,-0.32
2018-03-03T04:14:34.058Z,-0.33
2018-03-03T04:17:01.638Z,-0.34
2018-03-03T04:19:29.214Z,-0.31
2018-03-03T04:21:56.816Z,-0.31
2018-03-03T04:24:24.426Z,-0.31
2018-03-03T04:26:52.058Z,-0.28
2018-03-03T04:29:19.773Z,-0.20
2018-03-03T04:31:47.442Z,-0.13
2018-03-03T04:34:15.080Z,-0.09
2018-03-03T04:36:42.659Z,-0.06
2018-03-03T04:39:10.245Z,-0.03
2018-03-03T04:41:37.817Z,-0.04
2018-03-03T04:44:05.661Z,-0.01
2018-03-03T04:46:33.262Z,0.03
2018-03-03T04:49:01.097Z,-0.01
2018-03-03T04:51:28.698Z,0.02
2018-03-03T04:53:56.298Z,0.07
2018-03-03T04:56:23.918Z,0.06
2018-03-03T04:58:54.205Z,0.06
2018-03-03T05:01:21.894Z,0.08
2018-03-03T05:06:57.474Z,0.13
2018-03-03T05:09:25.294Z,0.13
2018-03-03T05:11:52.967Z,0.13
2018-03-03T05:14:25.997Z,0.20
2018-03-03T05:16:59.356Z,0.21
2018-03-03T05:19:32.477Z,0.16
2018-03-03T05:22:05.710Z,0.18
2018-03-03T05:24:38.920Z,0.13
2018-03-03T05:27:12.251Z,0.09
2018-03-03T05:29:45.572Z,0.22
2018-03-03T05:35:21.447Z,0.53
2018-03-03T05:37:54.498Z,0.65
2018-03-03T05:40:27.724Z,0.77
2018-03-03T05:43:02.009Z,0.92
2018-03-03T05:45:35.180Z,1.02
2018-03-03T05:51:20.715Z,1.35
2018-03-03T05:56:55.202Z,1.65
2018-03-03T05:59:28.282Z,1.74
2018-03-03T06:02:05.778Z,1.82
2018-03-03T06:04:48.229Z,1.90
2018-03-03T06:07:21.463Z,2.02
2018-03-03T06:09:59.788Z,2.11
2018-03-03T06:12:27.364Z,2.15
2018-03-03T06:14:55.014Z,2.21
2018-03-03T06:17:22.579Z,2.32
2018-03-03T06:19:50.139Z,2.44
2018-03-03T06:22:17.931Z,2.67
2018-03-03T06:24:45.489Z,2.79
2018-03-03T06:27:13.062Z,2.85
2018-03-03T06:29:40.758Z,2.85
2018-03-03T06:32:08.375Z,2.79
2018-03-03T06:34:35.951Z,2.87
2018-03-03T06:37:03.527Z,2.93
2018-03-03T06:39:31.224Z,3.01
2018-03-03T06:41:58.786Z,3.08
2018-03-03T06:44:26.385Z,3.13
2018-03-03T06:46:53.947Z,3.32
2018-03-03T06:49:21.726Z,3.66
2018-03-03T06:51:49.893Z,3.98
2018-03-03T06:54:17.450Z,4.34
2018-03-03T06:56:45.026Z,4.52
2018-03-03T06:59:12.874Z,4.64
2018-03-03T07:01:40.466Z,4.51
2018-03-03T07:04:08.235Z,4.45
2018-03-03T07:06:35.858Z,4.62
2018-03-03T07:09:03.473Z,4.98
2018-03-03T07:11:31.070Z,5.59
2018-03-03T07:13:58.692Z,6.89
2018-03-03T07:16:26.363Z,8.22
2018-03-03T07:18:53.996Z,9.84
2018-03-03T07:21:21.555Z,10.91
2018-03-03T07:23:49.376Z,11.16
2018-03-03T07:26:16.942Z,11.59
2018-03-03T07:28:44.729Z,11.56
2018-03-03T07:31:12.533Z,12.05
2018-03-03T07:33:40.352Z,12.02
2018-03-03T07:36:07.923Z,11.56
2018-03-03T07:38:36.110Z,11.45
2018-03-03T07:41:04.669Z,11.28
2018-03-03T07:43:32.233Z,11.79
2018-03-03T07:46:00.047Z,11.97
2018-03-03T07:48:27.691Z,11.89
2018-03-03T07:50:55.325Z,11.51
2018-03-03T07:53:22.894Z,11.78
2018-03-03T07:55:50.461Z,11.65
2018-03-03T07:58:29.898Z,11.66
2018-03-03T08:00:57.695Z,11.56
2018-03-03T08:03:25.515Z,12.03
2018-03-03T08:05:53.317Z,12.24
2018-03-03T08:08:21.051Z,12.47
2018-03-03T08:10:48.637Z,12.09
2018-03-03T08:13:16.387Z,11.09
2018-03-03T08:15:44.205Z,11.43
2018-03-03T08:18:11.778Z,10.96
2018-03-03T08:20:39.341Z,10.97
2018-03-03T08:23:06.910Z,11.31
2018-03-03T08:25:34.648Z,10.80
2018-03-03T08:28:02.496Z,10.88
2018-03-03T08:30:30.214Z,9.78
2018-03-03T08:32:57.842Z,8.28
2018-03-03T08:35:25.614Z,7.97
2018-03-03T08:37:53.210Z,9.14
2018-03-03T08:40:20.986Z,10.20
2018-03-03T08:42:48.535Z,11.04
2018-03-03T08:45:16.117Z,11.88
2018-03-03T08:47:43.690Z,12.30
2018-03-03T08:50:11.314Z,12.83
2018-03-03T08:52:38.921Z,13.19
2018-03-03T08:55:06.478Z,13.68
2018-03-03T08:57:34.200Z,13.49
2018-03-03T09:00:02.029Z,13.87
2018-03-03T09:02:29.610Z,14.49
2018-03-03T09:04:57.178Z,14.68
2018-03-03T09:07:24.791Z,15.51
2018-03-03T09:09:52.366Z,15.73
2018-03-03T09:12:19.990Z,16.16
2018-03-03T09:14:47.555Z,16.59
2018-03-03T09:17:15.354Z,16.69
2018-03-03T09:19:42.925Z,15.78
2018-03-03T09:22:10.651Z,14.96
2018-03-03T09:24:38.254Z,13.74
2018-03-03T09:27:05.828Z,12.59
2018-03-03T09:29:33.465Z,12.28
2018-03-03T09:32:01.030Z,11.31
2018-03-03T09:34:28.585Z,10.26
2018-03-03T09:36:56.149Z,9.87
2018-03-03T09:39:23.706Z,9.89
2018-03-03T09:41:51.328Z,10.08
2018-03-03T09:44:18.890Z,10.53
2018-03-03T09:46:46.502Z,10.94
2018-03-03T09:49:14.319Z,11.36
2018-03-03T09:51:42.183Z,12.04
2018-03-03T09:54:09.913Z,12.61
2018-03-03T09:56:37.474Z,12.83
2018-03-03T09:59:05.260Z,12.82
2018-03-03T10:01:33.157Z,13.34
2018-03-03T10:04:01.001Z,14.09
2018-03-03T10:06:28.596Z,13.88
2018-03-03T10:08:56.173Z,13.50
2018-03-03T10:11:23.950Z,13.08
2018-03-03T10:13:51.510Z,13.18
2018-03-03T10:16:19.299Z,13.65
2018-03-03T10:18:46.903Z,14.00
2018-03-03T10:21:14.557Z,14.43
2018-03-03T10:23:42.133Z,15.40
2018-03-03T10:26:09.858Z,16.19
2018-03-03T10:28:37.575Z,16.59
2018-03-03T10:31:05.142Z,17.10
2018-03-03T10:33:32.716Z,17.18
2018-03-03T10:36:00.531Z,17.05
2018-03-03T10:38:28.230Z,17.12
2018-03-03T10:40:55.792Z,17.62
2018-03-03T10:43:23.585Z,17.87
2018-03-03T10:45:51.315Z,18.19
2018-03-03T10:48:18.910Z,18.58
2018-03-03T10:50:46.803Z,18.65
2018-03-03T10:53:14.557Z,18.77
2018-03-03T10:55:42.809Z,18.83
2018-03-03T10:58:10.383Z,18.72
2018-03-03T11:00:37.990Z,18.56
2018-03-03T11:03:05.831Z,18.48
2018-03-03T11:05:33.408Z,18.25
2018-03-03T11:08:00.979Z,18.01
2018-03-03T11:10:28.791Z,17.23
2018-03-03T11:12:56.502Z,16.70
2018-03-03T11:15:24.126Z,16.19
2018-03-03T11:17:51.728Z,16.13
2018-03-03T11:20:19.361Z,15.79
2018-03-03T11:22:47.175Z,15.85
2018-03-03T11:25:14.996Z,16.47
2018-03-03T11:27:42.637Z,16.45
2018-03-03T11:30:10.182Z,16.76
2018-03-03T11:32:37.750Z,16.93
2018-03-03T11:35:05.333Z,17.34
2018-03-03T11:37:33.084Z,17.30
2018-03-03T11:40:00.903Z,17.47
2018-03-03T11:42:28.518Z,17.24
2018-03-03T11:44:56.086Z,17.13
2018-03-03T11:47:23.693Z,16.56
2018-03-03T11:49:51.474Z,15.59
2018-03-03T11:52:19.033Z,15.10
2018-03-03T11:54:46.703Z,15.25
2018-03-03T11:57:14.292Z,15.40
2018-03-03T11:59:42.152Z,16.00
2018-03-03T12:02:09.752Z,16.31
2018-03-03T12:04:37.324Z,16.65
2018-03-03T12:07:04.899Z,16.78
2018-03-03T12:09:32.620Z,17.09
2018-03-03T12:12:00.210Z,16.81
2018-03-03T12:14:27.954Z,16.98
2018-03-03T12:16:55.587Z,16.57
2018-03-03T12:19:23.392Z,17.17
2018-03-03T12:21:51.108Z,17.27
2018-03-03T12:24:18.719Z,17.49
2018-03-03T12:26:46.460Z,17.71
2018-03-03T12:29:14.150Z,18.34
2018-03-03T12:31:41.751Z,19.14
2018-03-03T12:34:09.389Z,19.79
2018-03-03T12:36:36.953Z,18.79
2018-03-03T12:39:04.587Z,18.74
2018-03-03T12:41:32.363Z,18.35
2018-03-03T12:44:00.088Z,18.69
2018-03-03T12:46:27.683Z,18.82
2018-03-03T12:48:55.249Z,18.93
2018-03-03T12:51:22.875Z,18.89
2018-03-03T12:53:50.810Z,18.41
2018-03-03T12:56:18.452Z,18.23
2018-03-03T12:58:46.209Z,18.71
2018-03-03T13:01:13.776Z,19.05
2018-03-03T13:03:41.393Z,19.32
2018-03-03T13:06:08.950Z,19.55
2018-03-03T13:08:36.630Z,18.56
2018-03-03T13:11:04.209Z,18.37
2018-03-03T13:13:31.993Z,18.23
2018-03-03T13:15:59.595Z,18.91
2018-03-03T13:18:27.160Z,19.37
2018-03-03T13:20:54.943Z,19.49
2018-03-03T13:23:22.577Z,19.73
2018-03-03T13:25:50.729Z,20.07
2018-03-03T13:28:18.463Z,20.22
2018-03-03T13:30:46.318Z,20.97
2018-03-03T13:33:14.134Z,21.86
2018-03-03T13:35:41.769Z,21.90
2018-03-03T13:38:09.313Z,22.15
2018-03-03T13:40:36.874Z,21.56
2018-03-03T13:43:04.706Z,21.13
2018-03-03T13:45:32.266Z,20.94
2018-03-03T13:47:59.863Z,20.93
2018-03-03T13:50:27.470Z,20.66
2018-03-03T13:52:55.132Z,20.17
2018-03-03T13:55:22.897Z,19.65
2018-03-03T13:57:50.470Z,19.01
2018-03-03T14:00:18.305Z,19.08
2018-03-03T14:02:46.022Z,19.38
2018-03-03T14:05:13.600Z,19.68
2018-03-03T14:07:41.394Z,20.15
2018-03-03T14:10:08.950Z,19.48
2018-03-03T14:12:36.517Z,19.22
2018-03-03T14:15:04.141Z,19.20
2018-03-03T14:17:31.959Z,19.01
2018-03-03T14:19:59.787Z,18.52
2018-03-03T14:22:27.350Z,18.50
2018-03-03T14:24:54.927Z,18.51
2018-03-03T14:27:22.511Z,18.33
2018-03-03T14:29:50.218Z,18.32
2018-03-03T14:32:17.781Z,18.29
2018-03-03T14:34:45.397Z,18.74
2018-03-03T14:37:12.958Z,19.01
2018-03-03T14:39:40.526Z,19.32
2018-03-03T14:42:08.103Z,19.98
2018-03-03T14:44:35.956Z,20.29
2018-03-03T14:47:03.603Z,19.91
2018-03-03T14:49:31.291Z,19.74
2018-03-03T14:51:59.013Z,19.97
2018-03-03T14:54:26.611Z,20.01
2018-03-03T14:56:54.348Z,20.09
2018-03-03T14:59:21.942Z,19.85
2018-03-03T15:01:49.510Z,19.46
2018-03-03T15:04:17.136Z,19.52
2018-03-03T15:06:44.780Z,19.11
2018-03-03T15:09:12.370Z,19.19
2018-03-03T15:11:40.046Z,18.83
2018-03-03T15:14:07.757Z,18.76
2018-03-03T15:16:35.307Z,18.81
2018-03-03T15:19:02.871Z,18.74
2018-03-03T15:21:30.500Z,18.50
2018-03-03T15:23:58.068Z,17.55
2018-03-03T15:26:25.630Z,16.31
2018-03-03T15:28:53.215Z,14.99
2018-03-03T15:31:21.097Z,13.81
2018-03-03T15:33:48.715Z,12.72
2018-03-03T15:36:16.533Z,11.90
2018-03-03T15:38:44.353Z,11.21
2018-03-03T15:41:11.927Z,10.80
2018-03-03T15:43:39.684Z,10.45
2018-03-03T15:46:07.273Z,10.17
2018-03-03T15:48:34.842Z,9.59
2018-03-03T15:51:02.644Z,9.23
2018-03-03T15:53:30.217Z,8.95
2018-03-03T15:55:57.998Z,8.67
2018-03-03T15:58:25.779Z,8.48
2018-03-03T16:00:53.348Z,8.23
2018-03-03T16:03:21.132Z,7.93
2018-03-03T16:05:48.693Z,7.84
2018-03-03T16:08:16.262Z,7.67
2018-03-03T16:10:43.821Z,7.55
2018-03-03T16:13:11.707Z,7.39
2018-03-03T16:15:39.520Z,7.25
2018-03-03T16:18:07.245Z,7.05
2018-03-03T16:20:35.060Z,6.96
2018-03-03T16:23:02.634Z,6.84
2018-03-03T16:25:30.213Z,6.69
2018-03-03T16:27:58.015Z,6.67
2018-03-03T16:30:25.832Z,6.67
2018-03-03T16:32:53.651Z,6.50
2018-03-03T16:35:21.470Z,6.35
2018-03-03T16:37:49.366Z,6.24
2018-03-03T16:40:16.938Z,6.16
2018-03-03T16:42:44.519Z,6.13
2018-03-03T16:45:12.085Z,6.15
2018-03-03T16:47:39.710Z,6.11
2018-03-03T16:50:07.549Z,6.04
2018-03-03T16:52:35.099Z,5.94
2018-03-03T16:55:02.688Z,5.81
2018-03-03T16:57:30.280Z,5.71
2018-03-03T16:59:57.864Z,5.68
2018-03-03T17:02:25.433Z,5.61
2018-03-03T17:04:53.286Z,5.55
2018-03-03T17:07:21.105Z,5.37
2018-03-03T17:09:48.922Z,5.26
2018-03-03T17:12:16.522Z,5.15
2018-03-03T17:14:44.101Z,5.16
2018-03-03T17:17:11.752Z,5.15
2018-03-03T17:19:39.344Z,5.15
2018-03-03T17:22:06.982Z,5.16
2018-03-03T17:24:34.702Z,5.13
2018-03-03T17:27:02.455Z,5.02
2018-03-03T17:29:30.039Z,4.99
2018-03-03T17:31:57.671Z,4.95
2018-03-03T17:34:25.503Z,4.86
2018-03-03T17:36:53.235Z,4.83
2018-03-03T17:39:21.040Z,4.80
2018-03-03T17:41:48.671Z,4.75
2018-03-03T17:44:16.270Z,4.39
2018-03-03T17:46:43.986Z,4.58
2018-03-03T17:49:11.576Z,4.62
2018-03-03T17:51:39.305Z,4.60
2018-03-03T17:54:06.984Z,4.63
2018-03-03T17:56:34.657Z,4.67
2018-03-03T17:59:02.379Z,4.71
2018-03-03T18:01:30.114Z,4.73
2018-03-03T18:03:57.925Z,4.67
2018-03-03T18:06:25.501Z,4.65
2018-03-03T18:08:53.171Z,4.57
2018-03-03T18:11:20.879Z,4.51
2018-03-03T18:13:57.209Z,4.49
2018-03-03T18:16:24.771Z,4.44
2018-03-03T18:18:52.382Z,4.47
2018-03-03T18:21:20.177Z,4.53
2018-03-03T18:23:47.896Z,4.54
2018-03-03T18:26:15.466Z,4.57
2018-03-03T18:28:43.042Z,4.59
2018-03-03T18:31:10.626Z,4.54
2018-03-03T18:33:38.190Z,4.56
2018-03-03T18:36:05.806Z,4.43
2018-03-03T18:38:33.382Z,4.29
2018-03-03T18:41:01.221Z,4.25
2018-03-03T18:43:29.032Z,4.20
2018-03-03T18:45:56.579Z,4.13
2018-03-03T18:48:24.376Z,4.17
2018-03-03T18:50:52.193Z,4.17
2018-03-03T18:53:20.114Z,4.12
2018-03-03T18:55:47.722Z,4.15
2018-03-03T18:58:15.449Z,4.18
2018-03-03T19:00:43.268Z,4.19
2018-03-03T19:03:11.086Z,4.05
2018-03-03T19:05:38.662Z,4.03
2018-03-03T19:08:06.248Z,4.01
2018-03-03T19:10:34.041Z,4.03
2018-03-03T19:13:01.607Z,3.99
2018-03-03T19:15:29.377Z,3.92
2018-03-03T19:17:56.952Z,3.90
2018-03-03T19:20:24.742Z,3.92
2018-03-03T19:22:52.308Z,3.99
2018-03-03T19:25:19.869Z,4.01
2018-03-03T19:27:47.552Z,4.04
2018-03-03T19:30:15.130Z,3.97
2018-03-03T19:32:42.688Z,4.00
2018-03-03T19:35:10.312Z,4.00
2018-03-03T19:37:38.003Z,4.03
2018-03-03T19:40:05.648Z,4.03
2018-03-03T19:42:33.227Z,4.11
2018-03-03T19:45:01.095Z,4.11
2018-03-03T19:47:28.672Z,4.16
2018-03-03T19:49:56.237Z,4.20
2018-03-03T19:52:24.047Z,4.12
2018-03-03T19:54:51.655Z,4.00
2018-03-03T19:57:19.241Z,3.96
2018-03-03T19:59:46.815Z,3.98
2018-03-03T20:02:14.438Z,3.97
2018-03-03T20:04:42.006Z,4.00
2018-03-03T20:07:09.757Z,3.97
2018-03-03T20:09:37.342Z,3.87
2018-03-03T20:12:04.910Z,3.78
2018-03-03T20:14:32.486Z,3.79
2018-03-03T20:17:00.828Z,3.77
2018-03-03T20:19:28.645Z,3.76
2018-03-03T20:21:56.221Z,3.79
2018-03-03T20:24:23.799Z,3.79
2018-03-03T20:26:51.521Z,3.74
2018-03-03T20:29:19.087Z,3.71
2018-03-03T20:31:46.657Z,3.68
2018-03-03T20:34:14.368Z,3.69
2018-03-03T20:36:41.998Z,3.69
2018-03-03T20:39:09.561Z,3.73
2018-03-03T20:41:37.118Z,3.79
2018-03-03T20:44:04.698Z,3.83
2018-03-03T20:46:32.339Z,3.62
2018-03-03T20:49:00.161Z,3.48
2018-03-03T20:51:27.879Z,3.52
2018-03-03T20:53:55.502Z,3.62
2018-03-03T20:56:23.062Z,3.68
2018-03-03T20:58:50.832Z,3.68
2018-03-03T21:01:18.402Z,3.65
2018-03-03T21:03:46.169Z,3.66
2018-03-03T21:06:13.988Z,3.63
2018-03-03T21:08:41.779Z,3.44
2018-03-03T21:11:15.884Z,3.45
2018-03-03T21:13:43.421Z,3.42
2018-03-03T21:16:10.993Z,3.37
2018-03-03T21:18:38.700Z,3.32
2018-03-03T21:21:06.298Z,3.34
2018-03-03T21:23:33.871Z,3.39
2018-03-03T21:26:01.545Z,3.38
2018-03-03T21:28:29.371Z,3.41
2018-03-03T21:30:56.943Z,3.41
2018-03-03T21:33:24.709Z,3.38
2018-03-03T21:35:52.273Z,3.35
2018-03-03T21:38:19.838Z,3.37
2018-03-03T21:40:47.406Z,3.41
2018-03-03T21:43:15.180Z,3.37
2018-03-03T21:45:42.998Z,3.40
2018-03-03T21:48:10.638Z,3.46
2018-03-03T21:50:38.216Z,3.40
2018-03-03T21:53:05.792Z,3.31
2018-03-03T21:55:33.349Z,3.25
2018-03-03T21:58:01.188Z,3.28
2018-03-03T22:00:29.007Z,3.32
2018-03-03T22:02:56.634Z,3.23
2018-03-03T22:05:24.189Z,3.16
2018-03-03T22:07:51.960Z,3.17
2018-03-03T22:10:19.537Z,3.21
2018-03-03T22:12:47.127Z,3.24
2018-03-03T22:15:14.707Z,3.27
2018-03-03T22:17:42.407Z,3.23
2018-03-03T22:20:10.251Z,3.24
2018-03-03T22:22:37.821Z,3.24
2018-03-03T22:25:05.556Z,3.21
2018-03-03T22:27:33.273Z,3.28
2018-03-03T22:30:00.989Z,3.36
2018-03-03T22:32:28.598Z,3.45
2018-03-03T22:34:56.320Z,3.51
2018-03-03T22:37:23.951Z,3.52
2018-03-03T22:39:51.515Z,3.47
2018-03-03T22:42:19.103Z,3.46
2018-03-03T22:44:46.831Z,3.49
2018-03-03T22:47:14.394Z,3.51
2018-03-03T22:49:42.167Z,3.43
2018-03-03T22:52:09.727Z,3.42
2018-03-03T22:54:37.604Z,3.35
2018-03-03T22:57:05.194Z,3.35
2018-03-03T22:59:32.750Z,3.35
2018-03-03T23:02:00.557Z,3.30
2018-03-03T23:04:28.276Z,3.35
2018-03-03T23:06:55.910Z,3.31
2018-03-03T23:09:23.632Z,3.37
2018-03-03T23:11:51.194Z,3.48
2018-03-03T23:14:18.770Z,3.54
2018-03-03T23:16:46.336Z,3.57
2018-03-03T23:19:13.908Z,3.63
2018-03-03T23:21:41.701Z,3.64
2018-03-03T23:24:09.519Z,3.66
2018-03-03T23:26:37.130Z,3.61
2018-03-03T23:29:04.956Z,3.63
2018-03-03T23:31:32.530Z,3.63
2018-03-03T23:34:00.259Z,3.65
2018-03-03T23:36:27.976Z,3.72
2018-03-03T23:38:55.570Z,3.86
2018-03-03T23:41:23.192Z,3.99
2018-03-03T23:43:50.872Z,4.18
2018-03-03T23:46:18.430Z,4.11
2018-03-03T23:48:46.157Z,3.98
2018-03-03T23:51:13.719Z,3.85
2018-03-03T23:53:42.219Z,3.78
2018-03-03T23:56:09.931Z,3.66
2018-03-03T23:58:37.548Z,3.66
